CKU2 weather

Treherne Airport
Treherne, Manitoba, Canada

Public forecast

Using degrees Celsius for public forecast. Weather courtesy of forecast.io.

METAR (pilot weather report)

Report is more than 6 hours old.

Closest report is Southport Airport, 22.3 nm (41.3 km) NE. Retrieved 2019/05/17 22:00 UTC (3 days ago):

CYPG 172200Z 01007KT 15SM FEW060 BKN240 14/M02 A3002 RMK SC1CI7 LAST OBS/NEXT 211100 UTC SLP177

TAF (pilot weather forecast)

Forecast is more than 12 hours old.

Closest forecast is Southport Airport, 22.3 nm (41.3 km) NE. Retrieved 2019/05/17 18:33 UTC (4 days ago):

TAF CYPG 171730Z 1718/1806 32005KT P6SM FEW040 SCT240 BECMG 1718/1720 03010KT FM180200 05012KT P6SM BKN200 RMK NXT FCST BY 180000Z